Pagrindinis puslapis
METAR-TAF:

METAR-TAF

Oro uostai :

Dübendorf, Šveicarija

platuma: 47-23-55N, ilguma: 8-38-53E, Aukštis: 448 m

Dabartinis oras

Ataskaita buvo paskelbta 15 minutes, ne 20:50 UTC
Ramus vėjas
Temperatūra 12°C
Drėgmė 62%
Slėgis 1023 hPa
Matomumas 10 km arba daugiau

METAR: LSMD 202050Z AUTO 00000KT 9999NDV NCD 12/05 Q1023 RMK

Laikas: 23:05 (21:05 UTC)


TAF: trūkstamas

Orai ataskaitas ir orų prognozės (METAR, TAF).

turimą stotys yra geltonos ir raudonos taškus žemėlapyje.

Perkelti pele per norėdami pamatyti stoties vardą.

Tada spustelėkite, norėdami matyti oro stebėjimo ir prognozės.

Norėdami pakeisti žemėlapį: spustelėkite ant žalios mygtukų su juodo kryžiaus žemyn,; žalią mygtuką su brūkšneliu, jei norite nutolinti; arba žalių rodyklių gretimoms žemėlapius.


METAR-TAF: